createdAt,value
2023-02-11T00:00:35.354Z,29.50
2023-02-11T00:03:24.228Z,32.70
2023-02-11T00:06:14.636Z,30.30
2023-02-11T00:09:03.960Z,29.80
2023-02-11T00:11:52.397Z,30.90
2023-02-11T00:14:40.870Z,31.43
2023-02-11T00:17:29.459Z,31.83
2023-02-11T00:20:17.895Z,31.17
2023-02-11T00:23:07.734Z,32.90
2023-02-11T00:25:56.205Z,33.13
2023-02-11T00:28:45.061Z,32.40
2023-02-11T00:31:34.201Z,30.70
2023-02-11T00:34:22.775Z,29.80
2023-02-11T00:37:12.095Z,29.03
2023-02-11T00:40:03.248Z,29.63
2023-02-11T00:42:52.922Z,29.23
2023-02-11T00:45:41.436Z,30.10
2023-02-11T00:48:29.938Z,29.93
2023-02-11T00:51:18.619Z,28.43
2023-02-11T00:54:07.480Z,29.57
2023-02-11T00:56:57.371Z,26.50
2023-02-11T00:59:45.804Z,27.50
2023-02-11T01:02:34.439Z,29.87
2023-02-11T01:05:24.584Z,30.30
2023-02-11T01:08:13.381Z,29.37
2023-02-11T01:11:03.595Z,28.93
2023-02-11T01:13:53.627Z,29.97
2023-02-11T01:16:42.239Z,31.40
2023-02-11T01:19:30.672Z,30.70
2023-02-11T01:22:19.149Z,28.77
2023-02-11T01:25:08.280Z,29.70
2023-02-11T01:27:56.808Z,25.90
2023-02-11T01:30:46.784Z,27.40
2023-02-11T01:33:35.279Z,26.07
2023-02-11T01:36:23.800Z,25.73
2023-02-11T01:39:12.331Z,27.00
2023-02-11T01:42:00.923Z,26.73
2023-02-11T01:44:52.434Z,26.17
2023-02-11T01:47:42.229Z,24.60
2023-02-11T01:50:30.731Z,23.37
2023-02-11T01:53:36.814Z,26.80
2023-02-11T01:56:43.890Z,24.30
2023-02-11T01:59:34.689Z,23.57
2023-02-11T02:02:26.263Z,24.67
2023-02-11T02:05:23.220Z,24.20
2023-02-11T02:08:18.529Z,25.10
2023-02-11T02:11:07.448Z,25.53
2023-02-11T02:13:55.936Z,24.80
2023-02-11T02:16:45.931Z,24.87
2023-02-11T02:20:04.960Z,25.37
2023-02-11T02:23:36.915Z,25.90
2023-02-11T02:26:56.778Z,27.40
2023-02-11T02:30:18.414Z,24.23
2023-02-11T02:33:25.623Z,26.13
2023-02-11T02:36:18.893Z,24.60
2023-02-11T02:39:10.208Z,26.50
2023-02-11T02:41:59.271Z,23.27
2023-02-11T02:44:50.179Z,22.50
2023-02-11T02:47:38.717Z,22.80
2023-02-11T02:50:31.994Z,22.77
2023-02-11T02:53:26.170Z,21.73
2023-02-11T02:56:20.271Z,23.07
2023-02-11T02:59:26.856Z,21.27
2023-02-11T03:02:19.487Z,20.90
2023-02-11T03:05:13.043Z,21.50
2023-02-11T03:08:09.181Z,20.70
2023-02-11T03:10:58.378Z,20.70
2023-02-11T03:13:47.323Z,20.77
2023-02-11T03:16:39.186Z,21.53
2023-02-11T03:19:30.169Z,20.73
2023-02-11T03:22:21.227Z,21.10
2023-02-11T03:25:11.218Z,22.20
2023-02-11T03:28:04.767Z,22.73
2023-02-11T03:30:57.213Z,21.63
2023-02-11T03:33:51.983Z,27.33
2023-02-11T03:36:45.900Z,22.03
2023-02-11T03:39:37.905Z,23.10
2023-02-11T03:42:31.197Z,21.70
2023-02-11T03:45:21.666Z,20.87
2023-02-11T03:48:12.969Z,22.60
2023-02-11T03:51:04.218Z,23.97
2023-02-11T03:53:54.060Z,21.50
2023-02-11T03:56:46.716Z,20.50
2023-02-11T03:59:55.466Z,21.40
2023-02-11T04:02:44.126Z,19.50
2023-02-11T04:05:33.161Z,20.83
2023-02-11T04:08:21.948Z,22.40
2023-02-11T04:11:10.646Z,20.37
2023-02-11T04:13:59.110Z,21.67
2023-02-11T04:16:48.922Z,19.87
2023-02-11T04:19:37.481Z,21.43
2023-02-11T04:22:25.946Z,21.33
2023-02-11T04:25:14.541Z,20.53
2023-02-11T04:28:03.134Z,20.70
2023-02-11T04:30:52.065Z,20.43
2023-02-11T04:33:41.886Z,21.70
2023-02-11T04:36:30.271Z,18.33
2023-02-11T04:39:18.779Z,19.83
2023-02-11T04:42:07.426Z,18.93
2023-02-11T04:44:55.894Z,19.87
2023-02-11T04:47:44.472Z,19.17
2023-02-11T04:50:34.316Z,18.77
2023-02-11T04:53:22.777Z,20.00
2023-02-11T04:56:11.283Z,18.27
2023-02-11T04:58:59.767Z,18.23
2023-02-11T05:01:48.302Z,19.40
2023-02-11T05:04:36.838Z,18.10
2023-02-11T05:07:26.713Z,18.90
2023-02-11T05:10:15.299Z,20.27
2023-02-11T05:13:03.862Z,18.80
2023-02-11T05:15:52.646Z,19.30
2023-02-11T05:18:42.103Z,19.10
2023-02-11T05:21:30.571Z,19.97
2023-02-11T05:24:20.796Z,18.53
2023-02-11T05:27:09.313Z,19.03
2023-02-11T05:29:58.077Z,20.93
2023-02-11T05:32:46.587Z,18.50
2023-02-11T05:35:35.040Z,19.40
2023-02-11T05:38:23.542Z,19.60
2023-02-11T05:41:13.485Z,20.13
2023-02-11T05:44:02.033Z,19.53
2023-02-11T05:46:50.486Z,20.47
2023-02-11T05:49:38.993Z,19.23
2023-02-11T05:52:27.482Z,21.00
2023-02-11T05:55:16.108Z,19.10
2023-02-11T05:58:05.985Z,19.90
2023-02-11T06:00:54.448Z,18.80
2023-02-11T06:03:43.095Z,21.80
2023-02-11T06:06:31.612Z,20.20
2023-02-11T06:09:20.148Z,20.60
2023-02-11T06:12:08.823Z,21.60
2023-02-11T06:14:58.690Z,20.77
2023-02-11T06:17:47.165Z,20.07
2023-02-11T06:20:35.674Z,18.63
2023-02-11T06:23:24.209Z,19.57
2023-02-11T06:26:19.197Z,19.03
2023-02-11T06:29:07.664Z,19.20
2023-02-11T06:31:57.557Z,19.67
2023-02-11T06:34:46.329Z,17.10
2023-02-11T06:37:35.261Z,16.53
2023-02-11T06:40:23.786Z,18.27
2023-02-11T06:43:12.240Z,18.13
2023-02-11T06:46:00.753Z,19.00
2023-02-11T06:48:50.780Z,19.30
2023-02-11T06:51:39.267Z,19.70
2023-02-11T06:54:27.779Z,18.80
2023-02-11T06:57:16.208Z,18.50
2023-02-11T07:00:05.893Z,18.20
2023-02-11T07:02:54.471Z,18.10
2023-02-11T07:05:44.853Z,17.13
2023-02-11T07:08:34.230Z,16.13
2023-02-11T07:11:25.237Z,16.20
2023-02-11T07:14:14.322Z,17.23
2023-02-11T07:17:04.035Z,15.70
2023-02-11T07:19:52.524Z,16.03
2023-02-11T07:22:42.364Z,16.47
2023-02-11T07:25:30.780Z,17.53
2023-02-11T07:28:19.363Z,19.07
2023-02-11T07:31:08.971Z,17.43
2023-02-11T07:33:59.859Z,18.67
2023-02-11T07:36:48.962Z,17.80
2023-02-11T07:39:38.828Z,17.20
2023-02-11T07:42:27.316Z,17.03
2023-02-11T07:45:16.302Z,16.97
2023-02-11T07:48:05.126Z,18.60
2023-02-11T07:50:53.590Z,18.63
2023-02-11T07:53:42.228Z,20.13
2023-02-11T07:56:32.150Z,19.43
2023-02-11T07:59:20.708Z,19.13
2023-02-11T08:02:10.142Z,20.53
2023-02-11T08:04:58.589Z,21.47
2023-02-11T08:07:47.128Z,20.13
2023-02-11T08:10:35.573Z,19.23
2023-02-11T08:13:26.973Z,22.33
2023-02-11T08:16:20.147Z,23.73
2023-02-11T08:19:11.507Z,21.20
2023-02-11T08:22:01.198Z,24.00
2023-02-11T08:24:52.266Z,23.43
2023-02-11T08:27:40.874Z,21.50
2023-02-11T08:30:30.702Z,21.80
2023-02-11T08:33:19.190Z,21.00
2023-02-11T08:36:09.712Z,18.60
2023-02-11T08:39:15.865Z,18.80
2023-02-11T08:42:06.427Z,18.77
2023-02-11T08:44:54.926Z,20.47
2023-02-11T08:47:44.742Z,21.33
2023-02-11T08:50:33.188Z,22.00
2023-02-11T08:53:21.606Z,19.00
2023-02-11T08:56:13.395Z,18.20
2023-02-11T08:59:02.349Z,17.70
2023-02-11T09:01:51.125Z,17.20
2023-02-11T09:04:41.259Z,16.93
2023-02-11T09:07:29.853Z,17.30
2023-02-11T09:10:18.373Z,20.03
2023-02-11T09:13:07.561Z,18.93
2023-02-11T09:15:56.084Z,18.03
2023-02-11T09:18:45.657Z,18.40
2023-02-11T09:21:35.542Z,16.90
2023-02-11T09:24:24.050Z,17.03
2023-02-11T09:27:12.508Z,17.83
2023-02-11T09:30:01.000Z,17.70
2023-02-11T09:32:49.505Z,17.63
2023-02-11T09:35:38.015Z,18.03
2023-02-11T09:38:27.800Z,18.27
2023-02-11T09:41:44.896Z,20.17
2023-02-11T09:44:35.459Z,18.33
2023-02-11T09:47:30.752Z,19.70
2023-02-11T09:50:23.864Z,21.27
2023-02-11T09:53:17.809Z,21.50
2023-02-11T09:56:13.747Z,20.57
2023-02-11T09:59:02.298Z,19.57
2023-02-11T10:01:52.685Z,21.50
2023-02-11T10:04:59.781Z,21.50
2023-02-11T10:07:53.030Z,22.20
2023-02-11T10:10:48.955Z,23.87
2023-02-11T10:13:48.729Z,20.70
2023-02-11T10:16:48.973Z,22.60
2023-02-11T10:19:47.352Z,20.93
2023-02-11T10:22:37.907Z,20.63
2023-02-11T10:25:27.935Z,19.20
2023-02-11T10:28:19.079Z,17.50
2023-02-11T10:31:11.412Z,20.17
2023-02-11T10:34:01.912Z,19.23
2023-02-11T10:36:50.345Z,20.63
2023-02-11T10:39:39.861Z,17.63
2023-02-11T10:42:28.512Z,21.63
2023-02-11T10:45:24.933Z,20.20
2023-02-11T10:48:40.446Z,19.87
2023-02-11T10:51:29.836Z,16.60
2023-02-11T10:54:21.270Z,16.90
2023-02-11T10:57:19.759Z,16.80
2023-02-11T11:00:22.611Z,14.73
2023-02-11T11:03:18.602Z,13.57
2023-02-11T11:06:10.391Z,13.97
2023-02-11T11:08:59.012Z,12.73
2023-02-11T11:11:53.381Z,13.93
2023-02-11T11:14:41.917Z,12.70
2023-02-11T11:17:30.762Z,12.03
2023-02-11T11:20:24.837Z,11.77
2023-02-11T11:23:18.830Z,12.10
2023-02-11T11:26:10.119Z,12.27
2023-02-11T11:29:01.505Z,12.07
2023-02-11T11:31:52.899Z,12.80
2023-02-11T11:34:42.982Z,11.27
2023-02-11T11:37:33.173Z,10.83
2023-02-11T11:40:25.664Z,12.93
2023-02-11T11:43:23.037Z,10.50
2023-02-11T11:46:12.248Z,10.63
2023-02-11T11:49:23.343Z,12.70
2023-02-11T11:52:19.282Z,11.97
2023-02-11T11:55:15.469Z,12.20
2023-02-11T11:58:05.465Z,11.17
2023-02-11T12:00:59.772Z,12.83
2023-02-11T12:04:11.950Z,13.13
2023-02-11T12:07:20.797Z,12.80
2023-02-11T12:10:27.332Z,12.27
2023-02-11T12:13:42.040Z,12.43
2023-02-11T12:16:37.136Z,13.20
2023-02-11T12:19:52.367Z,13.43
2023-02-11T12:22:48.292Z,15.27
2023-02-11T12:25:42.569Z,15.10
2023-02-11T12:28:38.433Z,13.77
2023-02-11T12:31:32.556Z,14.70
2023-02-11T12:34:33.615Z,15.93
2023-02-11T12:37:31.636Z,15.50
2023-02-11T12:40:25.982Z,15.43
2023-02-11T12:43:21.338Z,16.10
2023-02-11T12:46:28.968Z,17.07
2023-02-11T12:49:28.618Z,17.67
2023-02-11T12:52:32.279Z,17.20
2023-02-11T12:55:23.005Z,19.17
2023-02-11T12:58:14.464Z,17.73
2023-02-11T13:01:06.758Z,16.67
2023-02-11T13:03:58.424Z,16.90
2023-02-11T13:06:51.377Z,17.47
2023-02-11T13:09:44.471Z,17.53
2023-02-11T13:12:51.399Z,17.53
2023-02-11T13:15:40.175Z,18.77
2023-02-11T13:18:49.994Z,16.63
2023-02-11T13:21:49.589Z,17.33
2023-02-11T13:24:44.787Z,16.53
2023-02-11T13:27:42.583Z,18.53
2023-02-11T13:30:35.375Z,18.63
2023-02-11T13:33:34.955Z,17.50
2023-02-11T13:36:25.169Z,16.93
2023-02-11T13:39:21.145Z,19.03
2023-02-11T13:42:18.066Z,16.80
2023-02-11T13:45:18.598Z,17.60
2023-02-11T13:48:10.017Z,17.50
2023-02-11T13:51:00.590Z,17.50
2023-02-11T13:53:51.539Z,16.30
2023-02-11T13:56:44.012Z,17.70
2023-02-11T13:59:47.512Z,17.50
2023-02-11T14:02:55.063Z,18.67
2023-02-11T14:06:31.669Z,18.07
2023-02-11T14:09:39.431Z,18.40
2023-02-11T14:12:44.100Z,18.23
2023-02-11T14:15:39.965Z,18.27
2023-02-11T14:18:55.732Z,19.47
2023-02-11T14:21:45.550Z,17.70
2023-02-11T14:24:49.841Z,18.10
2023-02-11T14:27:42.361Z,18.20
2023-02-11T14:30:42.840Z,19.30
2023-02-11T14:33:54.110Z,17.87
2023-02-11T14:37:00.033Z,19.90
2023-02-11T14:39:55.929Z,20.63
2023-02-11T14:42:44.791Z,20.10
2023-02-11T14:45:37.952Z,19.77
2023-02-11T14:48:30.517Z,20.00
2023-02-11T14:51:23.139Z,20.20
2023-02-11T14:54:15.127Z,22.10
2023-02-11T14:57:11.105Z,20.37
2023-02-11T15:00:02.580Z,20.63
2023-02-11T15:02:53.624Z,21.50
2023-02-11T15:05:42.126Z,21.57
2023-02-11T15:08:31.477Z,19.57
2023-02-11T15:11:22.289Z,22.00
2023-02-11T15:14:12.605Z,21.70
2023-02-11T15:17:03.668Z,20.20
2023-02-11T15:19:55.710Z,19.17
2023-02-11T15:22:45.131Z,21.23
2023-02-11T15:25:34.321Z,21.23
2023-02-11T15:28:24.757Z,20.53
2023-02-11T15:31:16.635Z,20.73
2023-02-11T15:34:08.805Z,19.83
2023-02-11T15:36:58.837Z,20.20
2023-02-11T15:39:47.471Z,20.73
2023-02-11T15:42:50.698Z,21.93
2023-02-11T15:45:42.960Z,21.93
2023-02-11T15:48:36.454Z,20.40
2023-02-11T15:51:29.439Z,20.93
2023-02-11T15:54:22.053Z,20.67
2023-02-11T15:57:11.379Z,20.70
2023-02-11T16:00:04.321Z,22.80
2023-02-11T16:02:53.667Z,21.30
2023-02-11T16:05:42.271Z,20.67
2023-02-11T16:08:34.629Z,21.23
2023-02-11T16:11:29.572Z,20.37
2023-02-11T16:14:23.876Z,21.97
2023-02-11T16:17:14.283Z,20.17
2023-02-11T16:20:02.778Z,22.67
2023-02-11T16:22:51.334Z,20.00
2023-02-11T16:25:43.393Z,21.43
2023-02-11T16:28:33.646Z,21.10
2023-02-11T16:31:22.212Z,19.67
2023-02-11T16:34:18.629Z,19.97
2023-02-11T16:37:07.493Z,18.27
2023-02-11T16:39:56.063Z,21.17
2023-02-11T16:42:44.546Z,20.47
2023-02-11T16:45:38.333Z,19.57
2023-02-11T16:48:26.794Z,19.33
2023-02-11T16:51:15.346Z,18.10
2023-02-11T16:54:03.843Z,21.50
2023-02-11T16:56:52.304Z,18.67
2023-02-11T16:59:40.744Z,21.77
2023-02-11T17:02:32.544Z,23.80
2023-02-11T17:05:23.272Z,24.77
2023-02-11T17:08:12.605Z,22.93
2023-02-11T17:11:01.100Z,25.90
2023-02-11T17:13:49.652Z,24.70
2023-02-11T17:16:40.661Z,24.40
2023-02-11T17:19:30.637Z,23.10
2023-02-11T17:22:19.453Z,23.07
2023-02-11T17:25:08.169Z,21.23
2023-02-11T17:27:56.786Z,21.93
2023-02-11T17:30:45.315Z,24.30
2023-02-11T17:33:36.113Z,23.50
2023-02-11T17:36:26.079Z,24.73
2023-02-11T17:39:15.054Z,23.67
2023-02-11T17:42:03.706Z,28.30
2023-02-11T17:44:52.138Z,27.13
2023-02-11T17:47:40.713Z,26.00
2023-02-11T17:50:29.585Z,24.57
2023-02-11T17:53:19.547Z,25.50
2023-02-11T17:56:10.178Z,26.70
2023-02-11T17:58:58.696Z,25.80
2023-02-11T18:01:47.763Z,24.00
2023-02-11T18:04:36.414Z,23.27
2023-02-11T18:07:25.242Z,23.63
2023-02-11T18:10:15.155Z,23.60
2023-02-11T18:13:03.607Z,20.53
2023-02-11T18:15:52.446Z,27.17
2023-02-11T18:18:41.096Z,25.40
2023-02-11T18:21:29.604Z,28.30
2023-02-11T18:24:18.162Z,30.90
2023-02-11T18:27:08.274Z,25.40
2023-02-11T18:29:56.910Z,25.53
2023-02-11T18:32:45.528Z,24.27
2023-02-11T18:35:34.068Z,26.93
2023-02-11T18:38:23.129Z,26.77
2023-02-11T18:41:11.938Z,27.60
2023-02-11T18:44:03.037Z,27.10
2023-02-11T18:46:52.290Z,27.33
2023-02-11T18:49:40.797Z,25.70
2023-02-11T18:52:29.298Z,25.23
2023-02-11T18:55:23.247Z,26.47
2023-02-11T18:58:12.458Z,25.27
2023-02-11T19:01:02.414Z,26.10
2023-02-11T19:03:51.581Z,28.17
2023-02-11T19:06:40.166Z,30.73
2023-02-11T19:09:28.752Z,28.83
2023-02-11T19:12:17.381Z,27.20
2023-02-11T19:15:07.592Z,27.37
2023-02-11T19:17:57.420Z,26.07
2023-02-11T19:20:46.001Z,24.87
2023-02-11T19:23:34.843Z,23.47
2023-02-11T19:26:24.784Z,26.10
2023-02-11T19:29:13.395Z,25.30
2023-02-11T19:32:02.186Z,27.53
2023-02-11T19:34:53.162Z,26.10
2023-02-11T19:37:41.747Z,26.40
2023-02-11T19:40:30.290Z,26.20
2023-02-11T19:43:18.824Z,27.10
2023-02-11T19:46:07.570Z,35.70
2023-02-11T19:48:56.160Z,34.83
2023-02-11T19:51:46.025Z,30.07
2023-02-11T19:54:34.616Z,24.90
2023-02-11T19:57:23.210Z,25.43
2023-02-11T20:00:12.739Z,25.30
2023-02-11T20:03:01.317Z,23.47
2023-02-11T20:05:50.532Z,25.50
2023-02-11T20:08:41.032Z,31.83
2023-02-11T20:11:30.557Z,34.13
2023-02-11T20:14:19.205Z,33.13
2023-02-11T20:17:07.713Z,31.43
2023-02-11T20:19:56.211Z,36.77
2023-02-11T20:22:44.731Z,37.30
2023-02-11T20:25:34.626Z,37.67
2023-02-11T20:28:23.254Z,40.90
2023-02-11T20:31:12.457Z,32.97
2023-02-11T20:34:01.472Z,34.60
2023-02-11T20:36:52.777Z,30.93
2023-02-11T20:39:42.024Z,31.90
2023-02-11T20:42:31.894Z,31.73
2023-02-11T20:45:20.409Z,32.53
2023-02-11T20:48:08.947Z,34.20
2023-02-11T20:50:57.448Z,31.70
2023-02-11T20:53:49.849Z,31.70
2023-02-11T20:56:39.634Z,32.60
2023-02-11T20:59:29.478Z,30.90
2023-02-11T21:02:18.397Z,33.87
2023-02-11T21:05:07.479Z,31.80
2023-02-11T21:07:55.982Z,32.03
2023-02-11T21:10:44.787Z,32.03
2023-02-11T21:13:33.895Z,30.17
2023-02-11T21:16:24.128Z,31.20
2023-02-11T21:19:13.280Z,31.30
2023-02-11T21:22:01.892Z,30.47
2023-02-11T21:24:50.436Z,32.80
2023-02-11T21:27:39.180Z,33.97
2023-02-11T21:30:27.729Z,32.80
2023-02-11T21:33:17.680Z,31.90
2023-02-11T21:36:08.285Z,36.23
2023-02-11T21:38:56.918Z,34.10
2023-02-11T21:41:45.489Z,34.70
2023-02-11T21:44:34.006Z,33.50
2023-02-11T21:47:22.535Z,34.13
2023-02-11T21:50:12.958Z,33.40
2023-02-11T21:53:01.487Z,34.00
2023-02-11T21:55:51.194Z,34.07
2023-02-11T21:58:39.868Z,33.10
2023-02-11T22:01:30.156Z,32.10
2023-02-11T22:04:18.745Z,33.97
2023-02-11T22:07:08.690Z,35.13
2023-02-11T22:09:57.183Z,34.07
2023-02-11T22:12:45.898Z,37.93
2023-02-11T22:15:34.432Z,36.10
2023-02-11T22:18:22.912Z,36.53
2023-02-11T22:21:16.695Z,37.27
2023-02-11T22:24:07.242Z,36.07
2023-02-11T22:26:55.754Z,34.67
2023-02-11T22:29:44.732Z,36.33
2023-02-11T22:32:33.212Z,34.60
2023-02-11T22:35:21.852Z,34.30
2023-02-11T22:38:10.348Z,34.20
2023-02-11T22:41:01.103Z,34.57
2023-02-11T22:43:50.142Z,35.57
2023-02-11T22:46:39.135Z,34.03
2023-02-11T22:49:28.927Z,37.00
2023-02-11T22:52:17.344Z,36.20
2023-02-11T22:55:07.074Z,34.90
2023-02-11T22:57:56.931Z,34.70
2023-02-11T23:00:45.433Z,34.70
2023-02-11T23:03:34.669Z,32.23
2023-02-11T23:06:23.176Z,33.37
2023-02-11T23:09:13.486Z,34.63
2023-02-11T23:12:02.011Z,36.10
2023-02-11T23:14:56.079Z,38.20
2023-02-11T23:17:44.539Z,34.00
2023-02-11T23:20:34.988Z,34.40
2023-02-11T23:23:23.482Z,35.23
2023-02-11T23:26:13.191Z,32.80
2023-02-11T23:29:01.899Z,35.47
2023-02-11T23:31:51.887Z,37.10
2023-02-11T23:34:40.446Z,32.80
2023-02-11T23:37:28.959Z,34.00
2023-02-11T23:40:17.573Z,34.60
2023-02-11T23:43:06.096Z,35.87
2023-02-11T23:45:54.809Z,34.33
2023-02-11T23:48:44.850Z,36.87
2023-02-11T23:51:33.331Z,36.87
2023-02-11T23:54:21.952Z,35.27
2023-02-11T23:57:10.381Z,34.57
2023-02-11T23:59:58.887Z,37.13
